createdAt,value
2016-03-03T00:00:55.019Z,0
2016-03-03T00:01:55.022Z,0
2016-03-03T00:02:55.040Z,0
2016-03-03T00:03:55.043Z,0
2016-03-03T00:04:55.061Z,0
2016-03-03T00:05:55.032Z,0
2016-03-03T00:06:55.066Z,0
2016-03-03T00:07:55.085Z,0
2016-03-03T00:08:55.087Z,0
2016-03-03T00:09:55.105Z,0
2016-03-03T00:10:55.077Z,0
2016-03-03T00:11:55.095Z,0
2016-03-03T00:12:55.082Z,0
2016-03-03T00:13:54.945Z,0
2016-03-03T00:14:55.135Z,0
2016-03-03T00:15:55.106Z,0
2016-03-03T00:16:55.124Z,0
2016-03-03T00:17:55.127Z,0
2016-03-03T00:18:55.145Z,0
2016-03-03T00:19:55.132Z,0
2016-03-03T00:20:55.151Z,0
2016-03-03T00:21:55.169Z,0
2016-03-03T00:22:55.172Z,0
2016-03-03T00:23:55.175Z,0
2016-03-03T00:24:55.161Z,0
2016-03-03T00:25:55.181Z,0
2016-03-03T00:26:55.183Z,0
2016-03-03T00:27:55.201Z,0
2016-03-03T00:28:55.203Z,0
2016-03-03T00:29:55.206Z,0
2016-03-03T00:30:55.209Z,0
2016-03-03T00:31:55.196Z,0
2016-03-03T00:32:55.230Z,0
2016-03-03T00:33:55.232Z,0
2016-03-03T00:34:55.220Z,0
2016-03-03T00:35:55.254Z,0
2016-03-03T00:36:55.241Z,0
2016-03-03T00:37:55.259Z,0
2016-03-03T00:38:55.246Z,0
2016-03-03T00:39:55.124Z,0
2016-03-03T00:40:55.282Z,0
2016-03-03T00:41:55.270Z,0
2016-03-03T00:42:55.288Z,0
2016-03-03T00:43:55.275Z,0
2016-03-03T00:44:55.294Z,0
2016-03-03T00:45:55.296Z,0
2016-03-03T00:46:55.298Z,0
2016-03-03T00:47:55.318Z,0
2016-03-03T00:48:55.304Z,0
2016-03-03T00:49:55.306Z,0
2016-03-03T00:50:55.356Z,0
2016-03-03T00:51:55.313Z,0
2016-03-03T00:52:55.315Z,0
2016-03-03T00:53:55.364Z,0
2016-03-03T00:54:55.180Z,0
2016-03-03T00:55:55.354Z,0
2016-03-03T00:56:55.404Z,0
2016-03-03T00:57:55.376Z,0
2016-03-03T00:58:55.409Z,0
2016-03-03T00:59:55.365Z,0
2016-03-03T01:00:55.414Z,0
2016-03-03T01:01:55.386Z,0
2016-03-03T01:02:55.233Z,0
2016-03-03T01:03:55.422Z,0
2016-03-03T01:04:55.395Z,0
2016-03-03T01:05:55.460Z,0
2016-03-03T01:06:55.416Z,0
2016-03-03T01:07:55.449Z,0
2016-03-03T01:08:55.420Z,0
2016-03-03T01:09:55.455Z,0
2016-03-03T01:10:55.426Z,0
2016-03-03T01:11:55.444Z,0
2016-03-03T01:12:55.447Z,0
2016-03-03T01:13:55.450Z,0
2016-03-03T01:14:55.468Z,0
2016-03-03T01:15:55.455Z,0
2016-03-03T01:16:55.474Z,0
2016-03-03T01:17:55.335Z,0
2016-03-03T01:18:55.495Z,0
2016-03-03T01:19:55.482Z,0
2016-03-03T01:20:55.500Z,0
2016-03-03T01:21:55.331Z,0
2016-03-03T01:22:55.506Z,0
2016-03-03T01:23:55.508Z,0
2016-03-03T01:24:55.526Z,0
2016-03-03T01:25:55.528Z,0
2016-03-03T01:26:55.531Z,0
2016-03-03T01:27:55.534Z,0
2016-03-03T01:28:55.553Z,0
2016-03-03T01:29:55.540Z,0
2016-03-03T01:30:55.542Z,0
2016-03-03T01:31:55.545Z,0
2016-03-03T01:32:55.563Z,0
2016-03-03T01:33:55.581Z,0
2016-03-03T01:34:55.583Z,0
2016-03-03T01:35:55.586Z,0
2016-03-03T01:36:55.589Z,0
2016-03-03T01:37:55.608Z,0
2016-03-03T01:38:55.594Z,0
2016-03-03T01:39:55.597Z,0
2016-03-03T01:40:55.632Z,0
2016-03-03T01:41:55.618Z,0
2016-03-03T01:42:55.621Z,0
2016-03-03T01:43:55.624Z,0
2016-03-03T01:44:55.627Z,0
2016-03-03T01:45:55.629Z,0
2016-03-03T01:46:55.633Z,0
2016-03-03T01:47:55.651Z,0
2016-03-03T01:48:55.669Z,0
2016-03-03T01:49:55.671Z,0
2016-03-03T01:50:55.659Z,0
2016-03-03T01:51:55.662Z,0
2016-03-03T01:52:55.680Z,0
2016-03-03T01:53:55.679Z,0
2016-03-03T01:54:55.526Z,0
2016-03-03T01:55:55.685Z,0
2016-03-03T01:56:55.703Z,0
2016-03-03T01:57:55.783Z,0
2016-03-03T01:58:55.724Z,0
2016-03-03T01:59:55.711Z,0
2016-03-03T02:00:55.730Z,0
2016-03-03T02:01:55.733Z,0
2016-03-03T02:02:55.735Z,0
2016-03-03T02:03:55.752Z,0
2016-03-03T02:04:55.755Z,0
2016-03-03T02:05:55.758Z,0
2016-03-03T02:06:55.761Z,0
2016-03-03T02:07:55.764Z,0
2016-03-03T02:08:55.767Z,0
2016-03-03T02:09:55.785Z,0
2016-03-03T02:10:55.772Z,0
2016-03-03T02:11:55.791Z,0
2016-03-03T02:12:55.794Z,0
2016-03-03T02:13:55.780Z,0
2016-03-03T02:14:55.798Z,0
2016-03-03T02:15:57.348Z,0
2016-03-03T02:16:55.835Z,0
2016-03-03T02:17:55.823Z,0
2016-03-03T02:18:55.826Z,0
2016-03-03T02:19:55.843Z,0
2016-03-03T02:20:55.831Z,0
2016-03-03T02:21:55.864Z,0
2016-03-03T02:22:55.851Z,0
2016-03-03T02:23:55.853Z,0
2016-03-03T02:24:55.857Z,0
2016-03-03T02:25:55.859Z,0
2016-03-03T02:26:55.878Z,0
2016-03-03T02:27:55.880Z,0
2016-03-03T02:28:55.883Z,0
2016-03-03T02:29:55.885Z,0
2016-03-03T02:30:55.888Z,0
2016-03-03T02:31:55.923Z,0
2016-03-03T02:32:55.909Z,0
2016-03-03T02:33:55.912Z,0
2016-03-03T02:34:55.914Z,0
2016-03-03T02:35:55.917Z,0
2016-03-03T02:36:55.919Z,0
2016-03-03T02:37:55.922Z,0
2016-03-03T02:38:55.941Z,0
2016-03-03T02:39:55.960Z,0
2016-03-03T02:40:55.946Z,0
2016-03-03T02:41:55.965Z,0
2016-03-03T02:42:55.982Z,0
2016-03-03T02:43:55.970Z,0
2016-03-03T02:44:55.973Z,0
2016-03-03T02:45:55.976Z,0
2016-03-03T02:46:55.979Z,0
2016-03-03T02:47:56.012Z,0
2016-03-03T02:48:55.984Z,0
2016-03-03T02:49:56.011Z,0
2016-03-03T02:50:55.982Z,0
2016-03-03T02:51:55.969Z,0
2016-03-03T02:52:55.972Z,0
2016-03-03T02:53:55.959Z,0
2016-03-03T02:54:55.968Z,0
2016-03-03T02:55:55.949Z,0
2016-03-03T02:56:55.946Z,0
2016-03-03T02:57:55.943Z,0
2016-03-03T02:58:55.800Z,0
2016-03-03T02:59:55.956Z,0
2016-03-03T03:00:55.957Z,0
2016-03-03T03:01:55.957Z,0
2016-03-03T03:02:55.958Z,0
2016-03-03T03:03:55.974Z,0
2016-03-03T03:04:55.975Z,0
2016-03-03T03:05:55.977Z,0
2016-03-03T03:06:55.979Z,0
2016-03-03T03:07:55.981Z,0
2016-03-03T03:08:55.983Z,0
2016-03-03T03:09:56.002Z,0
2016-03-03T03:10:55.988Z,0
2016-03-03T03:11:56.006Z,0
2016-03-03T03:12:56.040Z,0
2016-03-03T03:13:56.026Z,0
2016-03-03T03:14:56.014Z,0
2016-03-03T03:15:56.078Z,0
2016-03-03T03:16:56.033Z,0
2016-03-03T03:17:56.036Z,0
2016-03-03T03:18:56.039Z,0
2016-03-03T03:19:56.041Z,0
2016-03-03T03:20:56.044Z,0
2016-03-03T03:21:56.047Z,0
2016-03-03T03:22:56.082Z,0
2016-03-03T03:23:56.069Z,0
2016-03-03T03:24:56.103Z,0
2016-03-03T03:25:56.074Z,0
2016-03-03T03:26:56.093Z,0
2016-03-03T03:27:56.111Z,0
2016-03-03T03:28:56.099Z,0
2016-03-03T03:29:56.101Z,0
2016-03-03T03:30:56.103Z,0
2016-03-03T03:31:56.106Z,0
2016-03-03T03:32:56.140Z,0
2016-03-03T03:33:56.127Z,0
2016-03-03T03:34:56.145Z,0
2016-03-03T03:35:56.133Z,0
2016-03-03T03:36:56.151Z,0
2016-03-03T03:37:56.170Z,0
2016-03-03T03:38:56.156Z,0
2016-03-03T03:39:56.159Z,0
2016-03-03T03:40:56.161Z,0
2016-03-03T03:41:56.180Z,0
2016-03-03T03:42:56.198Z,0
2016-03-03T03:43:56.186Z,0
2016-03-03T03:44:56.189Z,0
2016-03-03T03:45:56.034Z,0
2016-03-03T03:46:56.194Z,0
2016-03-03T03:47:56.228Z,0
2016-03-03T03:48:56.200Z,0
2016-03-03T03:49:56.217Z,0
2016-03-03T03:50:56.251Z,0
2016-03-03T03:51:56.238Z,0
2016-03-03T03:52:56.225Z,0
2016-03-03T03:53:56.244Z,0
2016-03-03T03:54:56.246Z,0
2016-03-03T03:55:56.249Z,0
2016-03-03T03:56:56.251Z,0
2016-03-03T03:57:56.269Z,0
2016-03-03T03:58:56.272Z,0
2016-03-03T03:59:56.275Z,0
2016-03-03T04:00:56.278Z,0
2016-03-03T04:01:56.280Z,0
2016-03-03T04:02:56.299Z,0
2016-03-03T04:03:56.286Z,0
2016-03-03T04:04:56.304Z,0
2016-03-03T04:05:56.323Z,0
2016-03-03T04:06:56.309Z,0
2016-03-03T04:07:56.328Z,0
2016-03-03T04:08:56.315Z,0
2016-03-03T04:09:56.192Z,0
2016-03-03T04:10:56.337Z,0
2016-03-03T04:11:56.339Z,0
2016-03-03T04:12:56.342Z,0
2016-03-03T04:13:56.360Z,0
2016-03-03T04:14:56.348Z,0
2016-03-03T04:15:56.381Z,0
2016-03-03T04:16:56.368Z,0
2016-03-03T04:17:56.386Z,0
2016-03-03T04:18:56.406Z,0
2016-03-03T04:19:56.393Z,0
2016-03-03T04:20:56.379Z,0
2016-03-03T04:21:56.387Z,0
2016-03-03T04:22:56.406Z,0
2016-03-03T04:23:56.408Z,0
2016-03-03T04:24:56.426Z,0
2016-03-03T04:25:56.413Z,0
2016-03-03T04:26:56.463Z,0
2016-03-03T04:27:56.434Z,0
2016-03-03T04:28:56.436Z,0
2016-03-03T04:29:56.456Z,0
2016-03-03T04:30:56.442Z,0
2016-03-03T04:31:56.477Z,0
2016-03-03T04:32:56.464Z,0
2016-03-03T04:33:56.482Z,0
2016-03-03T04:34:56.469Z,0
2016-03-03T04:35:56.487Z,0
2016-03-03T04:36:56.474Z,0
2016-03-03T04:37:56.508Z,0
2016-03-03T04:38:56.323Z,0
2016-03-03T04:39:56.498Z,0
2016-03-03T04:40:56.501Z,0
2016-03-03T04:41:56.519Z,0
2016-03-03T04:42:56.522Z,0
2016-03-03T04:43:56.524Z,0
2016-03-03T04:44:56.527Z,0
2016-03-03T04:45:56.529Z,0
2016-03-03T04:46:56.517Z,0
2016-03-03T04:47:56.535Z,0
2016-03-03T04:48:56.554Z,0
2016-03-03T04:49:56.556Z,0
2016-03-03T04:50:56.575Z,0
2016-03-03T04:51:56.561Z,0
2016-03-03T04:52:56.611Z,0
2016-03-03T04:53:56.567Z,0
2016-03-03T04:54:56.585Z,0
2016-03-03T04:55:56.588Z,0
2016-03-03T04:56:56.591Z,0
2016-03-03T04:57:56.578Z,0
2016-03-03T04:58:56.643Z,0
2016-03-03T04:59:56.599Z,0
2016-03-03T05:00:56.633Z,0
2016-03-03T05:01:56.620Z,0
2016-03-03T05:02:56.622Z,0
2016-03-03T05:03:56.641Z,0
2016-03-03T05:04:56.658Z,0
2016-03-03T05:05:56.646Z,0
2016-03-03T05:06:56.680Z,0
2016-03-03T05:07:56.636Z,0
2016-03-03T05:08:56.669Z,0
2016-03-03T05:09:56.657Z,0
2016-03-03T05:10:56.674Z,0
2016-03-03T05:11:56.693Z,0
2016-03-03T05:12:56.665Z,0
2016-03-03T05:13:56.682Z,0
2016-03-03T05:14:56.686Z,0
2016-03-03T05:15:56.735Z,0
2016-03-03T05:16:56.706Z,0
2016-03-03T05:17:56.693Z,0
2016-03-03T05:18:56.712Z,0
2016-03-03T05:19:56.699Z,0
2016-03-03T05:20:56.749Z,0
2016-03-03T05:21:56.720Z,0
2016-03-03T05:22:56.754Z,0
2016-03-03T05:23:56.726Z,0
2016-03-03T05:24:56.760Z,0
2016-03-03T05:25:56.762Z,0
2016-03-03T05:26:56.750Z,0
2016-03-03T05:27:56.753Z,0
2016-03-03T05:28:56.770Z,0
2016-03-03T05:29:56.758Z,0
2016-03-03T05:30:56.775Z,0
2016-03-03T05:31:56.763Z,0
2016-03-03T05:32:56.781Z,0
2016-03-03T05:33:56.799Z,0
2016-03-03T05:34:56.786Z,0
2016-03-03T05:35:56.821Z,0
2016-03-03T05:36:56.807Z,0
2016-03-03T05:37:56.826Z,0
2016-03-03T05:38:56.813Z,0
2016-03-03T05:39:56.832Z,0
2016-03-03T05:40:56.850Z,0
2016-03-03T05:41:56.821Z,0
2016-03-03T05:42:56.840Z,0
2016-03-03T05:43:56.857Z,0
2016-03-03T05:44:56.845Z,0
2016-03-03T05:45:56.848Z,0
2016-03-03T05:46:56.850Z,0
2016-03-03T05:47:56.868Z,0
2016-03-03T05:48:56.871Z,0
2016-03-03T05:49:56.890Z,0
2016-03-03T05:50:56.893Z,0
2016-03-03T05:51:56.895Z,0
2016-03-03T05:52:56.898Z,0
2016-03-03T05:53:56.916Z,0
2016-03-03T05:54:56.934Z,0
2016-03-03T05:55:56.937Z,0
2016-03-03T05:56:56.923Z,0
2016-03-03T05:57:56.926Z,0
2016-03-03T05:58:56.929Z,0
2016-03-03T05:59:56.932Z,0
2016-03-03T06:00:56.934Z,0
2016-03-03T06:01:56.953Z,0
2016-03-03T06:02:56.971Z,4
2016-03-03T06:03:56.958Z,4
2016-03-03T06:04:56.977Z,4
2016-03-03T06:05:56.963Z,4
2016-03-03T06:06:56.983Z,4
2016-03-03T06:07:56.985Z,4
2016-03-03T06:08:57.002Z,0
2016-03-03T06:09:57.005Z,4
2016-03-03T06:10:56.993Z,4
2016-03-03T06:11:56.995Z,4
2016-03-03T06:12:56.998Z,4
2016-03-03T06:13:57.001Z,8
2016-03-03T06:14:57.019Z,4
2016-03-03T06:15:57.021Z,4
2016-03-03T06:16:57.025Z,4
2016-03-03T06:17:57.027Z,8
2016-03-03T06:18:57.030Z,8
2016-03-03T06:19:57.033Z,8
2016-03-03T06:20:57.052Z,12
2016-03-03T06:21:57.054Z,12
2016-03-03T06:22:57.057Z,12
2016-03-03T06:23:57.059Z,12
2016-03-03T06:24:57.078Z,16
2016-03-03T06:25:57.065Z,16
2016-03-03T06:26:57.067Z,20
2016-03-03T06:27:56.914Z,20
2016-03-03T06:28:57.104Z,24
2016-03-03T06:29:57.075Z,28
2016-03-03T06:30:57.125Z,32
2016-03-03T06:31:57.143Z,40
2016-03-03T06:32:57.130Z,44
2016-03-03T06:33:57.133Z,52
2016-03-03T06:34:57.117Z,56
2016-03-03T06:35:56.980Z,60
2016-03-03T06:36:57.122Z,60
2016-03-03T06:37:57.157Z,68
2016-03-03T06:38:57.128Z,76
2016-03-03T06:39:57.147Z,68
2016-03-03T06:40:57.150Z,68
2016-03-03T06:41:57.153Z,72
2016-03-03T06:42:57.186Z,72
2016-03-03T06:43:57.173Z,76
2016-03-03T06:44:57.191Z,88
2016-03-03T06:45:57.179Z,92
2016-03-03T06:46:57.181Z,92
2016-03-03T06:47:57.184Z,88
2016-03-03T06:48:57.191Z,84
2016-03-03T06:49:57.209Z,88
2016-03-03T06:50:57.211Z,92
2016-03-03T06:51:57.215Z,104
2016-03-03T06:52:57.217Z,116
2016-03-03T06:53:57.220Z,132
2016-03-03T06:54:57.254Z,160
2016-03-03T06:55:57.225Z,208
2016-03-03T06:56:57.244Z,228
2016-03-03T06:57:57.246Z,248
2016-03-03T06:58:57.264Z,268
2016-03-03T06:59:57.252Z,292
2016-03-03T07:00:57.269Z,288
2016-03-03T07:01:57.304Z,300
2016-03-03T07:02:57.291Z,308
2016-03-03T07:03:57.278Z,336
2016-03-03T07:04:57.297Z,308
2016-03-03T07:05:57.283Z,264
2016-03-03T07:06:57.302Z,260
2016-03-03T07:07:57.288Z,232
2016-03-03T07:08:57.323Z,232
2016-03-03T07:09:57.310Z,220
2016-03-03T07:10:57.312Z,224
2016-03-03T07:11:57.316Z,236
2016-03-03T07:12:57.333Z,256
2016-03-03T07:13:57.352Z,296
2016-03-03T07:14:57.339Z,308
2016-03-03T07:15:57.341Z,360
2016-03-03T07:16:57.343Z,380
2016-03-03T07:17:57.362Z,344
2016-03-03T07:18:57.349Z,308
2016-03-03T07:19:57.227Z,268
2016-03-03T07:20:57.354Z,232
2016-03-03T07:21:57.404Z,208
2016-03-03T07:22:57.376Z,216
2016-03-03T07:23:57.378Z,240
2016-03-03T07:24:57.413Z,276
2016-03-03T07:25:57.384Z,308
2016-03-03T07:26:57.417Z,336
2016-03-03T07:27:57.405Z,344
2016-03-03T07:28:57.408Z,364
2016-03-03T07:29:57.426Z,416
2016-03-03T07:30:57.428Z,452
2016-03-03T07:31:57.431Z,500
2016-03-03T07:32:57.434Z,564
2016-03-03T07:33:57.453Z,616
2016-03-03T07:34:57.456Z,740
2016-03-03T07:35:57.474Z,808
2016-03-03T07:36:57.460Z,796
2016-03-03T07:37:57.463Z,864
2016-03-03T07:38:57.497Z,984
2016-03-03T07:39:57.485Z,1148
2016-03-03T07:40:57.487Z,1156
2016-03-03T07:41:57.474Z,1072
2016-03-03T07:42:57.352Z,980
2016-03-03T07:43:57.495Z,892
2016-03-03T07:44:57.499Z,880
2016-03-03T07:45:57.501Z,956
2016-03-03T07:46:57.518Z,1048
2016-03-03T07:47:57.521Z,1144
2016-03-03T07:48:57.524Z,1200
2016-03-03T07:49:57.542Z,1220
2016-03-03T07:50:57.545Z,1224
2016-03-03T07:51:57.548Z,1216
2016-03-03T07:52:57.565Z,1184
2016-03-03T07:53:57.553Z,1156
2016-03-03T07:54:57.571Z,1140
2016-03-03T07:55:57.559Z,1100
2016-03-03T07:56:57.576Z,1060
2016-03-03T07:57:57.579Z,1008
2016-03-03T07:58:57.582Z,960
2016-03-03T07:59:57.584Z,912
2016-03-03T08:00:57.619Z,892
2016-03-03T08:01:57.605Z,876
2016-03-03T08:02:57.624Z,856
2016-03-03T08:03:57.628Z,836
2016-03-03T08:04:57.614Z,820
2016-03-03T08:05:57.617Z,804
2016-03-03T08:06:57.635Z,784
2016-03-03T08:07:57.638Z,768
2016-03-03T08:08:57.656Z,768
2016-03-03T08:09:57.643Z,768
2016-03-03T08:10:57.677Z,764
2016-03-03T08:11:57.680Z,764
2016-03-03T08:12:57.666Z,760
2016-03-03T08:13:57.701Z,748
2016-03-03T08:14:57.688Z,736
2016-03-03T08:16:11.862Z,716
2016-03-03T08:16:57.693Z,696
2016-03-03T08:17:57.696Z,680
2016-03-03T08:18:57.714Z,672
2016-03-03T08:19:57.717Z,660
2016-03-03T08:20:57.735Z,668
2016-03-03T08:21:57.723Z,680
2016-03-03T08:22:57.771Z,688
2016-03-03T08:23:57.728Z,708
2016-03-03T08:24:57.746Z,744
2016-03-03T08:25:57.764Z,776
2016-03-03T08:26:57.751Z,808
2016-03-03T08:27:57.770Z,828
2016-03-03T08:28:57.772Z,844
2016-03-03T08:29:57.790Z,852
2016-03-03T08:30:57.778Z,848
2016-03-03T08:31:57.795Z,828
2016-03-03T08:32:57.784Z,816
2016-03-03T08:33:57.817Z,808
2016-03-03T08:34:57.804Z,808
2016-03-03T08:35:57.822Z,796
2016-03-03T08:36:57.825Z,788
2016-03-03T08:37:57.844Z,768
2016-03-03T08:38:57.830Z,744
2016-03-03T08:39:57.849Z,700
2016-03-03T08:40:57.852Z,636
2016-03-03T08:41:57.869Z,568
2016-03-03T08:42:57.857Z,520
2016-03-03T08:43:57.907Z,484
2016-03-03T08:44:57.893Z,464
2016-03-03T08:45:57.896Z,456
2016-03-03T08:46:57.899Z,452
2016-03-03T08:47:57.885Z,452
2016-03-03T08:48:57.904Z,456
2016-03-03T08:49:57.891Z,464
2016-03-03T08:50:57.909Z,472
2016-03-03T08:51:57.912Z,480
2016-03-03T08:52:57.946Z,496
2016-03-03T08:53:57.934Z,508
2016-03-03T08:54:57.951Z,512
2016-03-03T08:55:57.954Z,504
2016-03-03T08:56:57.957Z,488
2016-03-03T08:57:57.944Z,468
2016-03-03T08:58:57.978Z,448
2016-03-03T08:59:57.965Z,424
2016-03-03T09:00:58.014Z,404
2016-03-03T09:01:57.987Z,384
2016-03-03T09:02:57.989Z,360
2016-03-03T09:03:58.006Z,340
2016-03-03T09:04:58.009Z,324
2016-03-03T09:05:57.997Z,308
2016-03-03T09:06:58.014Z,296
2016-03-03T09:07:58.017Z,288
2016-03-03T09:08:58.052Z,284
2016-03-03T09:09:57.883Z,280
2016-03-03T09:10:58.058Z,276
2016-03-03T09:11:58.044Z,272
2016-03-03T09:12:58.062Z,264
2016-03-03T09:13:58.050Z,260
2016-03-03T09:14:58.068Z,260
2016-03-03T09:15:58.086Z,260
2016-03-03T09:16:58.073Z,276
2016-03-03T09:17:58.076Z,280
2016-03-03T09:18:57.938Z,288
2016-03-03T09:19:58.097Z,300
2016-03-03T09:20:57.959Z,316
2016-03-03T09:21:58.118Z,340
2016-03-03T09:22:58.137Z,368
2016-03-03T09:23:58.123Z,400
2016-03-03T09:24:58.142Z,440
2016-03-03T09:25:58.128Z,488
2016-03-03T09:26:58.147Z,528
2016-03-03T09:27:58.150Z,556
2016-03-03T09:28:58.153Z,580
2016-03-03T09:29:58.155Z,604
2016-03-03T09:30:58.173Z,628
2016-03-03T09:31:58.176Z,660
2016-03-03T09:32:58.194Z,692
2016-03-03T09:33:58.181Z,732
2016-03-03T09:34:58.183Z,788
2016-03-03T09:35:58.203Z,860
2016-03-03T09:36:58.205Z,932
2016-03-03T09:37:58.223Z,988
2016-03-03T09:38:58.211Z,1036
2016-03-03T09:39:58.228Z,1076
2016-03-03T09:40:58.216Z,1108
2016-03-03T09:41:58.234Z,1132
2016-03-03T09:42:58.268Z,1156
2016-03-03T09:43:58.239Z,1176
2016-03-03T09:44:58.274Z,1176
2016-03-03T09:45:58.260Z,1124
2016-03-03T09:46:58.264Z,1008
2016-03-03T09:47:58.125Z,960
2016-03-03T09:48:58.285Z,928
2016-03-03T09:49:58.287Z,800
2016-03-03T09:50:58.290Z,712
2016-03-03T09:51:58.292Z,680
2016-03-03T09:52:58.295Z,672
2016-03-03T09:53:58.313Z,684
2016-03-03T09:54:58.332Z,684
2016-03-03T09:55:58.318Z,660
2016-03-03T09:56:58.321Z,656
2016-03-03T09:57:58.324Z,660
2016-03-03T09:58:58.343Z,668
2016-03-03T09:59:58.189Z,652
2016-03-03T10:00:58.364Z,664
2016-03-03T10:01:58.367Z,604
2016-03-03T10:02:58.369Z,608
2016-03-03T10:03:58.372Z,628
2016-03-03T10:04:58.390Z,632
2016-03-03T10:05:58.236Z,632
2016-03-03T10:06:58.395Z,648
2016-03-03T10:07:58.397Z,672
2016-03-03T10:08:58.416Z,732
2016-03-03T10:09:58.403Z,812
2016-03-03T10:10:58.421Z,852
2016-03-03T10:11:58.425Z,836
2016-03-03T10:12:58.427Z,792
2016-03-03T10:13:58.430Z,760
2016-03-03T10:14:58.447Z,756
2016-03-03T10:15:58.482Z,776
2016-03-03T10:16:58.452Z,812
2016-03-03T10:17:58.455Z,868
2016-03-03T10:18:58.474Z,924
2016-03-03T10:19:58.476Z,964
2016-03-03T10:20:58.510Z,1000
2016-03-03T10:21:58.482Z,1040
2016-03-03T10:22:58.501Z,1076
2016-03-03T10:23:58.487Z,1100
2016-03-03T10:24:58.521Z,1116
2016-03-03T10:25:58.509Z,1120
2016-03-03T10:26:58.526Z,1092
2016-03-03T10:27:58.514Z,1036
2016-03-03T10:28:58.532Z,972
2016-03-03T10:29:58.534Z,900
2016-03-03T10:30:58.553Z,836
2016-03-03T10:31:58.540Z,764
2016-03-03T10:32:58.558Z,696
2016-03-03T10:33:58.577Z,644
2016-03-03T10:34:58.564Z,608
2016-03-03T10:35:58.582Z,596
2016-03-03T10:36:58.585Z,588
2016-03-03T10:37:58.588Z,592
2016-03-03T10:38:58.591Z,592
2016-03-03T10:39:58.577Z,588
2016-03-03T10:40:58.596Z,584
2016-03-03T10:41:58.614Z,584
2016-03-03T10:42:58.616Z,596
2016-03-03T10:43:58.635Z,600
2016-03-03T10:44:58.622Z,612
2016-03-03T10:45:58.640Z,628
2016-03-03T10:46:58.643Z,644
2016-03-03T10:47:58.646Z,656
2016-03-03T10:48:58.648Z,668
2016-03-03T10:49:58.666Z,684
2016-03-03T10:50:58.669Z,708
2016-03-03T10:51:58.688Z,732
2016-03-03T10:52:58.674Z,740
2016-03-03T10:53:58.693Z,740
2016-03-03T10:54:58.696Z,756
2016-03-03T10:55:58.698Z,772
2016-03-03T10:56:58.717Z,772
2016-03-03T10:57:58.720Z,776
2016-03-03T10:58:58.722Z,768
2016-03-03T10:59:58.725Z,764
2016-03-03T11:00:58.728Z,756
2016-03-03T11:01:58.745Z,752
2016-03-03T11:02:58.733Z,752
2016-03-03T11:03:58.751Z,752
2016-03-03T11:04:58.753Z,760
2016-03-03T11:05:58.772Z,764
2016-03-03T11:06:58.759Z,760
2016-03-03T11:07:58.778Z,752
2016-03-03T11:08:58.796Z,736
2016-03-03T11:09:58.783Z,720
2016-03-03T11:10:58.802Z,732
2016-03-03T11:11:58.835Z,744
2016-03-03T11:12:58.839Z,760
2016-03-03T11:13:58.646Z,772
2016-03-03T11:14:59.306Z,784
2016-03-03T11:15:58.963Z,800
2016-03-03T11:16:58.838Z,812
2016-03-03T11:17:58.840Z,816
2016-03-03T11:18:58.827Z,812
2016-03-03T11:19:58.830Z,816
2016-03-03T11:20:58.849Z,792
2016-03-03T11:21:58.851Z,788
2016-03-03T11:22:58.871Z,776
2016-03-03T11:23:58.888Z,748
2016-03-03T11:24:58.875Z,744
2016-03-03T11:25:58.879Z,988
2016-03-03T11:26:58.928Z,1012
2016-03-03T11:27:58.914Z,1056
2016-03-03T11:28:58.902Z,1108
2016-03-03T11:29:58.904Z,1156
2016-03-03T11:30:58.907Z,1208
2016-03-03T11:31:58.909Z,1200
2016-03-03T11:32:58.944Z,1256
2016-03-03T11:33:58.931Z,1268
2016-03-03T11:34:58.933Z,1244
2016-03-03T11:35:58.936Z,1248
2016-03-03T11:36:59.189Z,1276
2016-03-03T11:37:58.958Z,1304
2016-03-03T11:38:58.960Z,1280
2016-03-03T11:39:58.978Z,1204
2016-03-03T11:40:58.981Z,1180
2016-03-03T11:41:58.983Z,1176
2016-03-03T11:42:59.002Z,1308
2016-03-03T11:43:59.005Z,1268
2016-03-03T11:44:59.007Z,1180
2016-03-03T11:45:59.010Z,1200
2016-03-03T11:46:59.482Z,1340
2016-03-03T11:47:59.015Z,1288
2016-03-03T11:48:59.033Z,1240
2016-03-03T11:49:59.036Z,1072
2016-03-03T11:50:59.101Z,1216
2016-03-03T11:51:59.041Z,1376
2016-03-03T11:52:59.044Z,1372
2016-03-03T11:53:59.266Z,1296
2016-03-03T11:54:59.081Z,1276
2016-03-03T11:55:59.082Z,1388
2016-03-03T11:56:59.076Z,1356
2016-03-03T11:57:59.084Z,1276
2016-03-03T11:58:59.064Z,1280
2016-03-03T11:59:59.076Z,1284
2016-03-03T12:00:59.057Z,1100
2016-03-03T12:01:59.071Z,1096
2016-03-03T12:02:59.086Z,1072
2016-03-03T12:03:59.149Z,1156
2016-03-03T12:04:59.070Z,1012
2016-03-03T12:05:59.086Z,928
2016-03-03T12:06:59.088Z,888
2016-03-03T12:07:59.089Z,820
2016-03-03T12:08:59.106Z,744
2016-03-03T12:09:59.092Z,680
2016-03-03T12:10:59.405Z,628
2016-03-03T12:11:59.111Z,580
2016-03-03T12:12:59.113Z,544
2016-03-03T12:13:59.163Z,520
2016-03-03T12:14:59.165Z,472
2016-03-03T12:15:59.137Z,424
2016-03-03T12:16:59.155Z,408
2016-03-03T12:17:59.141Z,412
2016-03-03T12:18:59.191Z,444
2016-03-03T12:19:59.145Z,464
2016-03-03T12:20:59.195Z,476
2016-03-03T12:21:59.167Z,480
2016-03-03T12:22:59.169Z,476
2016-03-03T12:23:59.187Z,472
2016-03-03T12:24:59.189Z,480
2016-03-03T12:25:59.193Z,492
2016-03-03T12:26:59.195Z,504
2016-03-03T12:27:59.214Z,532
2016-03-03T12:28:59.216Z,568
2016-03-03T12:29:59.219Z,624
2016-03-03T12:30:59.222Z,668
2016-03-03T12:31:59.225Z,864
2016-03-03T12:32:59.243Z,932
2016-03-03T12:33:59.246Z,988
2016-03-03T12:34:59.249Z,1008
2016-03-03T12:35:59.267Z,956
2016-03-03T12:36:59.269Z,956
2016-03-03T12:37:59.288Z,1004
2016-03-03T12:38:59.274Z,1028
2016-03-03T12:39:59.277Z,1136
2016-03-03T12:40:59.280Z,1088
2016-03-03T12:41:59.329Z,1100
2016-03-03T12:42:59.349Z,928
2016-03-03T12:43:59.319Z,872
2016-03-03T12:44:59.321Z,864
2016-03-03T12:45:59.341Z,848
2016-03-03T12:46:59.327Z,824
2016-03-03T12:47:59.361Z,820
2016-03-03T12:48:59.332Z,820
2016-03-03T12:49:59.367Z,820
2016-03-03T12:50:59.354Z,828
2016-03-03T12:51:59.356Z,808
2016-03-03T12:52:59.218Z,776
2016-03-03T12:53:59.362Z,748
2016-03-03T12:54:59.380Z,744
2016-03-03T12:55:59.383Z,732
2016-03-03T12:56:59.433Z,736
2016-03-03T12:57:59.420Z,736
2016-03-03T12:58:59.406Z,684
2016-03-03T12:59:59.425Z,632
2016-03-03T13:00:59.428Z,576
2016-03-03T13:01:59.461Z,528
2016-03-03T13:02:59.433Z,496
2016-03-03T13:03:59.466Z,476
2016-03-03T13:04:59.439Z,460
2016-03-03T13:05:59.472Z,460
2016-03-03T13:06:59.460Z,476
2016-03-03T13:07:59.305Z,492
2016-03-03T13:08:59.480Z,500
2016-03-03T13:09:59.483Z,516
2016-03-03T13:10:59.486Z,532
2016-03-03T13:11:59.519Z,604
2016-03-03T13:12:59.554Z,616
2016-03-03T13:13:59.509Z,624
2016-03-03T13:14:59.496Z,664
2016-03-03T13:15:59.515Z,800
2016-03-03T13:16:59.517Z,928
2016-03-03T13:17:59.551Z,744
2016-03-03T13:18:59.523Z,672
2016-03-03T13:19:59.541Z,648
2016-03-03T13:20:59.543Z,612
2016-03-03T13:21:59.546Z,568
2016-03-03T13:22:59.549Z,528
2016-03-03T13:23:59.583Z,496
2016-03-03T13:24:59.570Z,480
2016-03-03T13:25:59.573Z,472
2016-03-03T13:26:59.606Z,448
2016-03-03T13:27:59.609Z,416
2016-03-03T13:28:59.581Z,392
2016-03-03T13:29:59.600Z,376
2016-03-03T13:30:59.603Z,372
2016-03-03T13:31:59.621Z,352
2016-03-03T13:32:59.623Z,328
2016-03-03T13:33:59.658Z,316
2016-03-03T13:34:59.661Z,304
2016-03-03T13:35:59.631Z,280
2016-03-03T13:36:59.666Z,260
2016-03-03T13:37:59.652Z,252
2016-03-03T13:38:59.655Z,248
2016-03-03T13:39:59.674Z,248
2016-03-03T13:40:59.660Z,256
2016-03-03T13:41:59.725Z,272
2016-03-03T13:42:59.701Z,280
2016-03-03T13:43:59.689Z,292
2016-03-03T13:44:59.722Z,316
2016-03-03T13:45:59.708Z,344
2016-03-03T13:46:59.711Z,348
2016-03-03T13:47:59.714Z,356
2016-03-03T13:48:59.716Z,360
2016-03-03T13:49:59.736Z,376
2016-03-03T13:50:59.722Z,380
2016-03-03T13:51:59.755Z,396
2016-03-03T13:52:59.758Z,408
2016-03-03T13:53:59.636Z,412
2016-03-03T13:54:59.764Z,416
2016-03-03T13:55:59.783Z,420
2016-03-03T13:56:59.770Z,436
2016-03-03T13:57:59.788Z,456
2016-03-03T13:58:59.774Z,524
2016-03-03T13:59:59.777Z,612
2016-03-03T14:00:59.796Z,636
2016-03-03T14:01:59.643Z,652
2016-03-03T14:02:59.660Z,664
2016-03-03T14:03:59.820Z,692
2016-03-03T14:04:59.838Z,652
2016-03-03T14:05:59.825Z,624
2016-03-03T14:06:59.844Z,604
2016-03-03T14:07:59.831Z,620
2016-03-03T14:08:59.834Z,620
2016-03-03T14:09:59.851Z,668
2016-03-03T14:10:59.854Z,692